This is the latest recevied weather packets stored in our database for station/object NN5DX-13. If no packets are shown the sender has not sent any weather packets the latest 10 day(s).
| Time | Temp. | Humidity | Pressure | Rain* | Wind** | Luminosity | Snow |
|---|---|---|---|---|---|---|---|
| 1777440017 | 25° C | 52% | 1014.2 hPa | 0 mm | - | - | - |
| 1777439716 | 24.44° C | 47% | 1014.3 hPa | 0 mm | - | - | - |
| 1777439417 | 24.44° C | 43% | 1014.1 hPa | 0 mm | - | - | - |
| 1777439117 | 24.44° C | 40% | 1014.1 hPa | 0 mm | - | - | - |
| 1777438817 | 24.44° C | 36% | 1014 hPa | 0 mm | - | - | - |
| 1777438516 | 24.44° C | 34% | 1013.9 hPa | 0 mm | - | - | - |
| 1777438216 | 24.44° C | 34% | 1013.5 hPa | 0 mm | - | - | - |
| 1777437916 | 24.44° C | 30% | 1013.6 hPa | 0 mm | - | - | - |
| 1777437618 | 24.44° C | 29% | 1013.6 hPa | 0 mm | - | - | - |
| 1777437318 | 25° C | 27% | 1013.7 hPa | 0 mm | - | - | - |
| 1777437018 | 25° C | 25% | 1013.8 hPa | 0 mm | - | - | - |
| 1777436716 | 25° C | 24% | 1013.7 hPa | 0 mm | - | - | - |
| 1777436118 | 25° C | 22% | 1013.3 hPa | 0 mm | - | - | - |
| 1777435818 | 25.56° C | 22% | 1013.5 hPa | 0 mm | - | - | - |
| 1777435518 | 25.56° C | 22% | 1013.6 hPa | 0 mm | - | - | - |
| 1777435218 | 25.56° C | 21% | 1013.6 hPa | 0 mm | - | - | - |
| 1777434318 | 25.56° C | 20% | 1013.3 hPa | 0 mm | - | - | - |
| 1777430118 | 28.33° C | 14% | 1011.7 hPa | 0 mm | - | - | - |
| 1777427116 | 29.44° C | 13% | 1010.9 hPa | 0 mm | - | - | - |
| 1777425618 | 31.11° C | 12% | 1011.3 hPa | 0 mm | - | - | - |
| 1777422618 | 31.67° C | 14% | 1011.3 hPa | 0 mm | - | - | - |
| 1777422318 | 31.67° C | 15% | 1011.3 hPa | 0 mm | - | - | - |
| 1777421718 | 32.22° C | 14% | 1011.1 hPa | 0 mm | - | - | - |
| 1777421118 | 32.78° C | 13% | 1010.8 hPa | 0 mm | - | - | - |
| 1777420218 | 33.33° C | 12% | 1011 hPa | 0 mm | - | - | - |
* Rain latest hour (hover to see other rain measurements)
** Current wind speed in m/s (hover to see current wind gust speed)